sensor_id;sensor_type;location;lat;lon;timestamp;temperature;humidity
57709;SHT35;42558;52.388;13.390;2022-08-19T00:01:50;21.13;88.19
57709;SHT35;42558;52.388;13.390;2022-08-19T00:04:21;21.21;88.13
57709;SHT35;42558;52.388;13.390;2022-08-19T00:06:54;21.29;88.00
57709;SHT35;42558;52.388;13.390;2022-08-19T00:09:21;21.23;87.43
57709;SHT35;42558;52.388;13.390;2022-08-19T00:11:50;21.24;87.71
57709;SHT35;42558;52.388;13.390;2022-08-19T00:14:19;21.28;87.42
57709;SHT35;42558;52.388;13.390;2022-08-19T00:16:47;21.41;86.83
57709;SHT35;42558;52.388;13.390;2022-08-19T00:19:16;21.48;86.44
57709;SHT35;42558;52.388;13.390;2022-08-19T00:21:43;21.50;86.27
57709;SHT35;42558;52.388;13.390;2022-08-19T00:24:11;21.44;86.44
57709;SHT35;42558;52.388;13.390;2022-08-19T00:26:41;21.36;86.68
57709;SHT35;42558;52.388;13.390;2022-08-19T00:29:10;21.28;87.12
57709;SHT35;42558;52.388;13.390;2022-08-19T00:31:40;21.26;87.45
57709;SHT35;42558;52.388;13.390;2022-08-19T00:34:10;21.18;87.92
57709;SHT35;42558;52.388;13.390;2022-08-19T00:36:39;21.11;88.20
57709;SHT35;42558;52.388;13.390;2022-08-19T00:39:07;21.09;88.40
57709;SHT35;42558;52.388;13.390;2022-08-19T00:41:36;21.09;88.46
57709;SHT35;42558;52.388;13.390;2022-08-19T00:44:22;21.11;88.45
57709;SHT35;42558;52.388;13.390;2022-08-19T00:46:54;21.09;88.38
57709;SHT35;42558;52.388;13.390;2022-08-19T00:49:33;21.01;88.60
57709;SHT35;42558;52.388;13.390;2022-08-19T00:52:14;20.99;89.06
57709;SHT35;42558;52.388;13.390;2022-08-19T00:54:47;20.99;89.06
57709;SHT35;42558;52.388;13.390;2022-08-19T00:57:18;20.98;89.09
57709;SHT35;42558;52.388;13.390;2022-08-19T00:59:57;20.95;89.02
57709;SHT35;42558;52.388;13.390;2022-08-19T01:02:29;20.91;89.18
57709;SHT35;42558;52.388;13.390;2022-08-19T01:04:59;20.94;89.19
57709;SHT35;42558;52.388;13.390;2022-08-19T01:07:34;20.91;88.91
57709;SHT35;42558;52.388;13.390;2022-08-19T01:10:06;20.91;88.77
57709;SHT35;42558;52.388;13.390;2022-08-19T01:12:39;20.92;88.67
57709;SHT35;42558;52.388;13.390;2022-08-19T01:15:08;20.94;88.56
57709;SHT35;42558;52.388;13.390;2022-08-19T01:17:39;20.92;88.42
57709;SHT35;42558;52.388;13.390;2022-08-19T01:20:12;20.97;88.39
57709;SHT35;42558;52.388;13.390;2022-08-19T01:22:48;21.00;88.25
57709;SHT35;42558;52.388;13.390;2022-08-19T01:25:22;20.96;88.36
57709;SHT35;42558;52.388;13.390;2022-08-19T01:28:05;20.87;88.88
57709;SHT35;42558;52.388;13.390;2022-08-19T01:30:37;20.81;89.38
57709;SHT35;42558;52.388;13.390;2022-08-19T01:33:09;20.78;89.50
57709;SHT35;42558;52.388;13.390;2022-08-19T01:35:37;20.69;89.78
57709;SHT35;42558;52.388;13.390;2022-08-19T01:38:05;20.62;90.13
57709;SHT35;42558;52.388;13.390;2022-08-19T01:40:38;20.59;90.52
57709;SHT35;42558;52.388;13.390;2022-08-19T01:43:06;20.56;90.60
57709;SHT35;42558;52.388;13.390;2022-08-19T01:45:33;20.53;90.58
57709;SHT35;42558;52.388;13.390;2022-08-19T01:48:01;20.51;90.63
57709;SHT35;42558;52.388;13.390;2022-08-19T01:50:30;20.52;90.59
57709;SHT35;42558;52.388;13.390;2022-08-19T01:52:59;20.52;90.50
57709;SHT35;42558;52.388;13.390;2022-08-19T01:55:33;20.54;90.47
57709;SHT35;42558;52.388;13.390;2022-08-19T01:58:08;20.52;90.42
57709;SHT35;42558;52.388;13.390;2022-08-19T02:00:46;20.55;90.48
57709;SHT35;42558;52.388;13.390;2022-08-19T02:03:14;20.52;90.40
57709;SHT35;42558;52.388;13.390;2022-08-19T02:05:42;20.51;90.45
57709;SHT35;42558;52.388;13.390;2022-08-19T02:08:12;20.46;90.51
57709;SHT35;42558;52.388;13.390;2022-08-19T02:10:40;20.36;90.82
57709;SHT35;42558;52.388;13.390;2022-08-19T02:13:10;20.33;90.99
57709;SHT35;42558;52.388;13.390;2022-08-19T02:15:39;20.33;91.08
57709;SHT35;42558;52.388;13.390;2022-08-19T02:18:07;20.30;91.08
57709;SHT35;42558;52.388;13.390;2022-08-19T02:20:35;20.29;91.10
57709;SHT35;42558;52.388;13.390;2022-08-19T02:23:03;20.30;91.20
57709;SHT35;42558;52.388;13.390;2022-08-19T02:25:39;20.32;91.12
57709;SHT35;42558;52.388;13.390;2022-08-19T02:28:07;20.31;91.02
57709;SHT35;42558;52.388;13.390;2022-08-19T02:30:34;20.34;91.08
57709;SHT35;42558;52.388;13.390;2022-08-19T02:33:01;20.33;91.03
57709;SHT35;42558;52.388;13.390;2022-08-19T02:35:28;20.33;91.10
57709;SHT35;42558;52.388;13.390;2022-08-19T02:37:54;20.32;91.06
57709;SHT35;42558;52.388;13.390;2022-08-19T02:40:40;20.28;90.89
57709;SHT35;42558;52.388;13.390;2022-08-19T02:43:15;20.26;90.76
57709;SHT35;42558;52.388;13.390;2022-08-19T02:45:42;20.28;90.60
57709;SHT35;42558;52.388;13.390;2022-08-19T02:48:09;20.30;90.55
57709;SHT35;42558;52.388;13.390;2022-08-19T02:50:47;20.27;90.35
57709;SHT35;42558;52.388;13.390;2022-08-19T02:53:24;20.33;90.40
57709;SHT35;42558;52.388;13.390;2022-08-19T02:55:54;20.32;90.07
57709;SHT35;42558;52.388;13.390;2022-08-19T02:58:22;20.31;90.09
57709;SHT35;42558;52.388;13.390;2022-08-19T03:00:52;20.32;90.12
57709;SHT35;42558;52.388;13.390;2022-08-19T03:03:22;20.34;90.05
57709;SHT35;42558;52.388;13.390;2022-08-19T03:05:49;20.34;89.93
57709;SHT35;42558;52.388;13.390;2022-08-19T03:08:22;20.35;89.98
57709;SHT35;42558;52.388;13.390;2022-08-19T03:10:52;20.33;89.81
57709;SHT35;42558;52.388;13.390;2022-08-19T03:13:20;20.31;89.99
57709;SHT35;42558;52.388;13.390;2022-08-19T03:15:48;20.33;90.06
57709;SHT35;42558;52.388;13.390;2022-08-19T03:18:15;20.35;90.18
57709;SHT35;42558;52.388;13.390;2022-08-19T03:20:44;20.36;89.88
57709;SHT35;42558;52.388;13.390;2022-08-19T03:23:15;20.32;89.77
57709;SHT35;42558;52.388;13.390;2022-08-19T03:25:45;20.29;89.84
57709;SHT35;42558;52.388;13.390;2022-08-19T03:28:34;20.24;90.14
57709;SHT35;42558;52.388;13.390;2022-08-19T03:31:02;20.21;90.35
57709;SHT35;42558;52.388;13.390;2022-08-19T03:33:55;20.23;90.33
57709;SHT35;42558;52.388;13.390;2022-08-19T03:36:24;20.26;90.27
57709;SHT35;42558;52.388;13.390;2022-08-19T03:38:55;20.23;90.10
57709;SHT35;42558;52.388;13.390;2022-08-19T03:41:30;20.24;90.27
57709;SHT35;42558;52.388;13.390;2022-08-19T03:44:14;20.23;90.28
57709;SHT35;42558;52.388;13.390;2022-08-19T03:46:48;20.20;90.31
57709;SHT35;42558;52.388;13.390;2022-08-19T03:49:21;20.22;90.52
57709;SHT35;42558;52.388;13.390;2022-08-19T03:51:55;20.25;90.39
57709;SHT35;42558;52.388;13.390;2022-08-19T03:54:24;20.23;90.34
57709;SHT35;42558;52.388;13.390;2022-08-19T03:56:53;20.21;90.36
57709;SHT35;42558;52.388;13.390;2022-08-19T03:59:24;20.18;90.50
57709;SHT35;42558;52.388;13.390;2022-08-19T04:01:56;20.17;90.69
57709;SHT35;42558;52.388;13.390;2022-08-19T04:04:26;20.17;90.78
57709;SHT35;42558;52.388;13.390;2022-08-19T04:06:57;20.18;90.85
57709;SHT35;42558;52.388;13.390;2022-08-19T04:09:25;20.18;90.85
57709;SHT35;42558;52.388;13.390;2022-08-19T04:11:52;20.18;90.82
57709;SHT35;42558;52.388;13.390;2022-08-19T04:14:25;20.17;90.95
57709;SHT35;42558;52.388;13.390;2022-08-19T04:16:58;20.17;91.00
57709;SHT35;42558;52.388;13.390;2022-08-19T04:19:28;20.19;91.04
57709;SHT35;42558;52.388;13.390;2022-08-19T04:21:57;20.20;91.02
57709;SHT35;42558;52.388;13.390;2022-08-19T04:24:24;20.23;91.04
57709;SHT35;42558;52.388;13.390;2022-08-19T04:26:51;20.24;90.99
57709;SHT35;42558;52.388;13.390;2022-08-19T04:29:23;20.24;90.99
57709;SHT35;42558;52.388;13.390;2022-08-19T04:31:52;20.28;90.97
57709;SHT35;42558;52.388;13.390;2022-08-19T04:34:23;20.31;90.84
57709;SHT35;42558;52.388;13.390;2022-08-19T04:36:53;20.31;90.81
57709;SHT35;42558;52.388;13.390;2022-08-19T04:39:24;20.34;90.87
57709;SHT35;42558;52.388;13.390;2022-08-19T04:42:17;20.38;90.83
57709;SHT35;42558;52.388;13.390;2022-08-19T04:45:04;20.39;90.82
57709;SHT35;42558;52.388;13.390;2022-08-19T04:47:38;20.40;90.82
57709;SHT35;42558;52.388;13.390;2022-08-19T04:50:23;20.43;90.77
57709;SHT35;42558;52.388;13.390;2022-08-19T04:52:52;20.52;90.72
57709;SHT35;42558;52.388;13.390;2022-08-19T04:55:19;20.59;90.60
57709;SHT35;42558;52.388;13.390;2022-08-19T04:57:46;20.64;90.43
57709;SHT35;42558;52.388;13.390;2022-08-19T05:00:13;20.63;90.29
57709;SHT35;42558;52.388;13.390;2022-08-19T05:02:41;20.68;90.22
57709;SHT35;42558;52.388;13.390;2022-08-19T05:05:08;20.73;90.01
57709;SHT35;42558;52.388;13.390;2022-08-19T05:07:36;20.77;89.83
57709;SHT35;42558;52.388;13.390;2022-08-19T05:10:04;20.77;89.55
57709;SHT35;42558;52.388;13.390;2022-08-19T05:12:32;20.80;89.40
57709;SHT35;42558;52.388;13.390;2022-08-19T05:15:00;20.89;89.44
57709;SHT35;42558;52.388;13.390;2022-08-19T05:17:29;20.89;88.90
57709;SHT35;42558;52.388;13.390;2022-08-19T05:20:04;20.94;88.80
57709;SHT35;42558;52.388;13.390;2022-08-19T05:22:52;21.07;88.85
57709;SHT35;42558;52.388;13.390;2022-08-19T05:25:20;21.15;88.63
57709;SHT35;42558;52.388;13.390;2022-08-19T05:27:48;21.26;88.44
57709;SHT35;42558;52.388;13.390;2022-08-19T05:30:16;21.29;88.14
57709;SHT35;42558;52.388;13.390;2022-08-19T05:32:43;21.34;88.08
57709;SHT35;42558;52.388;13.390;2022-08-19T05:35:10;21.33;87.58
57709;SHT35;42558;52.388;13.390;2022-08-19T05:37:38;21.22;87.34
57709;SHT35;42558;52.388;13.390;2022-08-19T05:40:09;21.11;87.46
57709;SHT35;42558;52.388;13.390;2022-08-19T05:42:37;21.15;87.67
57709;SHT35;42558;52.388;13.390;2022-08-19T05:45:05;21.25;87.56
57709;SHT35;42558;52.388;13.390;2022-08-19T05:47:33;21.20;87.25
57709;SHT35;42558;52.388;13.390;2022-08-19T05:50:07;21.27;87.51
57709;SHT35;42558;52.388;13.390;2022-08-19T05:52:34;21.28;87.07
57709;SHT35;42558;52.388;13.390;2022-08-19T05:55:09;21.29;87.09
57709;SHT35;42558;52.388;13.390;2022-08-19T05:57:36;21.33;86.96
57709;SHT35;42558;52.388;13.390;2022-08-19T06:00:04;21.35;86.93
57709;SHT35;42558;52.388;13.390;2022-08-19T06:02:36;21.34;87.10
57709;SHT35;42558;52.388;13.390;2022-08-19T06:05:04;21.28;87.05
57709;SHT35;42558;52.388;13.390;2022-08-19T06:07:36;21.28;87.20
57709;SHT35;42558;52.388;13.390;2022-08-19T06:10:06;21.29;87.07
57709;SHT35;42558;52.388;13.390;2022-08-19T06:12:37;21.37;87.20
57709;SHT35;42558;52.388;13.390;2022-08-19T06:15:08;21.35;86.86
57709;SHT35;42558;52.388;13.390;2022-08-19T06:17:38;21.37;87.05
57709;SHT35;42558;52.388;13.390;2022-08-19T06:20:07;21.41;87.03
57709;SHT35;42558;52.388;13.390;2022-08-19T06:22:43;21.42;86.99
57709;SHT35;42558;52.388;13.390;2022-08-19T06:25:13;21.53;87.06
57709;SHT35;42558;52.388;13.390;2022-08-19T06:27:41;21.57;86.48
57709;SHT35;42558;52.388;13.390;2022-08-19T06:30:29;21.60;86.33
57709;SHT35;42558;52.388;13.390;2022-08-19T06:32:56;21.70;86.49
57709;SHT35;42558;52.388;13.390;2022-08-19T06:35:23;21.78;86.57
57709;SHT35;42558;52.388;13.390;2022-08-19T06:37:50;21.80;86.17
57709;SHT35;42558;52.388;13.390;2022-08-19T06:40:17;21.74;85.84
57709;SHT35;42558;52.388;13.390;2022-08-19T06:42:44;21.80;85.53
57709;SHT35;42558;52.388;13.390;2022-08-19T06:45:21;21.86;85.24
57709;SHT35;42558;52.388;13.390;2022-08-19T06:48:00;21.88;85.11
57709;SHT35;42558;52.388;13.390;2022-08-19T06:50:27;21.93;85.22
57709;SHT35;42558;52.388;13.390;2022-08-19T06:52:53;22.01;85.26
57709;SHT35;42558;52.388;13.390;2022-08-19T06:55:21;22.06;84.88
57709;SHT35;42558;52.388;13.390;2022-08-19T06:57:49;22.12;84.67
57709;SHT35;42558;52.388;13.390;2022-08-19T07:00:20;22.15;84.47
57709;SHT35;42558;52.388;13.390;2022-08-19T07:02:46;22.23;84.34
57709;SHT35;42558;52.388;13.390;2022-08-19T07:05:22;22.24;84.17
57709;SHT35;42558;52.388;13.390;2022-08-19T07:07:49;22.36;84.44
57709;SHT35;42558;52.388;13.390;2022-08-19T07:10:16;22.42;84.18
57709;SHT35;42558;52.388;13.390;2022-08-19T07:12:44;22.43;83.67
57709;SHT35;42558;52.388;13.390;2022-08-19T07:15:11;22.42;83.38
57709;SHT35;42558;52.388;13.390;2022-08-19T07:17:38;22.33;83.39
57709;SHT35;42558;52.388;13.390;2022-08-19T07:20:07;22.38;83.57
57709;SHT35;42558;52.388;13.390;2022-08-19T07:22:37;22.53;83.47
57709;SHT35;42558;52.388;13.390;2022-08-19T07:25:07;22.58;83.17
57709;SHT35;42558;52.388;13.390;2022-08-19T07:27:35;22.64;83.26
57709;SHT35;42558;52.388;13.390;2022-08-19T07:30:05;22.67;82.66
57709;SHT35;42558;52.388;13.390;2022-08-19T07:32:39;22.64;82.34
57709;SHT35;42558;52.388;13.390;2022-08-19T07:35:07;22.75;82.41
57709;SHT35;42558;52.388;13.390;2022-08-19T07:37:35;22.83;82.15
57709;SHT35;42558;52.388;13.390;2022-08-19T07:40:04;22.86;82.09
57709;SHT35;42558;52.388;13.390;2022-08-19T07:42:34;22.92;82.06
57709;SHT35;42558;52.388;13.390;2022-08-19T07:45:00;22.97;81.85
57709;SHT35;42558;52.388;13.390;2022-08-19T07:47:27;23.04;81.90
57709;SHT35;42558;52.388;13.390;2022-08-19T07:50:14;22.94;81.17
57709;SHT35;42558;52.388;13.390;2022-08-19T07:52:42;22.95;81.41
57709;SHT35;42558;52.388;13.390;2022-08-19T07:55:14;22.97;81.87
57709;SHT35;42558;52.388;13.390;2022-08-19T07:58:04;23.02;81.06
57709;SHT35;42558;52.388;13.390;2022-08-19T08:00:31;23.18;81.34
57709;SHT35;42558;52.388;13.390;2022-08-19T08:02:58;23.23;80.54
57709;SHT35;42558;52.388;13.390;2022-08-19T08:05:25;23.22;80.48
57709;SHT35;42558;52.388;13.390;2022-08-19T08:08:11;23.22;81.16
57709;SHT35;42558;52.388;13.390;2022-08-19T08:10:58;23.13;80.48
57709;SHT35;42558;52.388;13.390;2022-08-19T08:13:26;23.09;80.86
57709;SHT35;42558;52.388;13.390;2022-08-19T08:15:54;23.13;81.11
57709;SHT35;42558;52.388;13.390;2022-08-19T08:18:23;23.09;80.71
57709;SHT35;42558;52.388;13.390;2022-08-19T08:20:54;23.11;80.91
57709;SHT35;42558;52.388;13.390;2022-08-19T08:23:23;23.14;80.83
57709;SHT35;42558;52.388;13.390;2022-08-19T08:25:53;23.16;81.31
57709;SHT35;42558;52.388;13.390;2022-08-19T08:28:23;23.21;81.29
57709;SHT35;42558;52.388;13.390;2022-08-19T08:30:55;23.21;80.89
57709;SHT35;42558;52.388;13.390;2022-08-19T08:33:24;23.27;80.67
57709;SHT35;42558;52.388;13.390;2022-08-19T08:36:06;23.25;80.31
57709;SHT35;42558;52.388;13.390;2022-08-19T08:38:34;23.29;80.11
57709;SHT35;42558;52.388;13.390;2022-08-19T08:41:22;23.21;80.01
57709;SHT35;42558;52.388;13.390;2022-08-19T08:44:10;23.27;80.45
57709;SHT35;42558;52.388;13.390;2022-08-19T08:46:55;23.35;80.51
57709;SHT35;42558;52.388;13.390;2022-08-19T08:49:38;23.33;80.86
57709;SHT35;42558;52.388;13.390;2022-08-19T08:52:26;23.35;81.27
57709;SHT35;42558;52.388;13.390;2022-08-19T08:55:06;23.30;81.42
57709;SHT35;42558;52.388;13.390;2022-08-19T08:57:51;23.28;81.69
57709;SHT35;42558;52.388;13.390;2022-08-19T09:00:29;23.22;81.54
57709;SHT35;42558;52.388;13.390;2022-08-19T09:03:06;23.16;81.61
57709;SHT35;42558;52.388;13.390;2022-08-19T09:08:43;23.16;81.82
57709;SHT35;42558;52.388;13.390;2022-08-19T09:11:24;23.32;81.70
57709;SHT35;42558;52.388;13.390;2022-08-19T09:17:21;23.18;81.64
57709;SHT35;42558;52.388;13.390;2022-08-19T09:20:12;23.13;81.64
57709;SHT35;42558;52.388;13.390;2022-08-19T09:22:51;23.10;82.19
57709;SHT35;42558;52.388;13.390;2022-08-19T09:25:19;23.03;81.93
57709;SHT35;42558;52.388;13.390;2022-08-19T09:27:55;22.99;82.07
57709;SHT35;42558;52.388;13.390;2022-08-19T09:30:48;23.13;82.01
57709;SHT35;42558;52.388;13.390;2022-08-19T09:33:18;23.18;81.53
57709;SHT35;42558;52.388;13.390;2022-08-19T09:35:45;23.29;81.29
57709;SHT35;42558;52.388;13.390;2022-08-19T09:38:19;23.39;81.08
57709;SHT35;42558;52.388;13.390;2022-08-19T09:40:48;23.45;80.73
57709;SHT35;42558;52.388;13.390;2022-08-19T09:43:16;23.44;80.41
57709;SHT35;42558;52.388;13.390;2022-08-19T09:46:00;23.26;80.69
57709;SHT35;42558;52.388;13.390;2022-08-19T09:48:27;23.31;81.18
57709;SHT35;42558;52.388;13.390;2022-08-19T09:50:54;23.53;81.47
57709;SHT35;42558;52.388;13.390;2022-08-19T09:53:21;23.73;80.88
57709;SHT35;42558;52.388;13.390;2022-08-19T09:55:51;23.56;79.67
57709;SHT35;42558;52.388;13.390;2022-08-19T09:58:20;23.41;80.14
57709;SHT35;42558;52.388;13.390;2022-08-19T10:00:52;23.43;80.21
57709;SHT35;42558;52.388;13.390;2022-08-19T10:03:20;23.43;80.38
57709;SHT35;42558;52.388;13.390;2022-08-19T10:05:56;23.46;80.50
57709;SHT35;42558;52.388;13.390;2022-08-19T10:08:26;23.39;80.59
57709;SHT35;42558;52.388;13.390;2022-08-19T10:10:57;23.41;80.75
57709;SHT35;42558;52.388;13.390;2022-08-19T10:13:44;23.38;80.97
57709;SHT35;42558;52.388;13.390;2022-08-19T10:16:13;23.52;80.56
57709;SHT35;42558;52.388;13.390;2022-08-19T10:18:46;23.63;80.05
57709;SHT35;42558;52.388;13.390;2022-08-19T10:21:25;23.61;80.05
57709;SHT35;42558;52.388;13.390;2022-08-19T10:23:59;23.59;79.99
57709;SHT35;42558;52.388;13.390;2022-08-19T10:26:33;23.41;80.38
57709;SHT35;42558;52.388;13.390;2022-08-19T10:29:07;23.13;80.50
57709;SHT35;42558;52.388;13.390;2022-08-19T10:31:36;22.96;81.26
57709;SHT35;42558;52.388;13.390;2022-08-19T10:34:23;22.95;81.67
57709;SHT35;42558;52.388;13.390;2022-08-19T10:36:53;23.00;81.58
57709;SHT35;42558;52.388;13.390;2022-08-19T10:39:27;22.97;81.55
57709;SHT35;42558;52.388;13.390;2022-08-19T10:42:08;22.93;81.45
57709;SHT35;42558;52.388;13.390;2022-08-19T10:44:40;22.96;81.62
57709;SHT35;42558;52.388;13.390;2022-08-19T10:47:08;23.05;81.63
57709;SHT35;42558;52.388;13.390;2022-08-19T10:49:50;23.01;81.36
57709;SHT35;42558;52.388;13.390;2022-08-19T10:52:41;22.95;81.72
57709;SHT35;42558;52.388;13.390;2022-08-19T10:55:16;23.04;81.76
57709;SHT35;42558;52.388;13.390;2022-08-19T10:58:25;23.15;81.27
57709;SHT35;42558;52.388;13.390;2022-08-19T11:00:57;23.15;80.96
57709;SHT35;42558;52.388;13.390;2022-08-19T11:03:25;23.05;80.98
57709;SHT35;42558;52.388;13.390;2022-08-19T11:06:03;23.00;81.20
57709;SHT35;42558;52.388;13.390;2022-08-19T11:08:35;23.00;81.13
57709;SHT35;42558;52.388;13.390;2022-08-19T11:11:05;22.94;81.19
57709;SHT35;42558;52.388;13.390;2022-08-19T11:13:34;22.93;81.24
57709;SHT35;42558;52.388;13.390;2022-08-19T11:16:06;22.88;81.34
57709;SHT35;42558;52.388;13.390;2022-08-19T11:18:37;22.85;81.68
57709;SHT35;42558;52.388;13.390;2022-08-19T11:23:47;22.92;81.79
57709;SHT35;42558;52.388;13.390;2022-08-19T11:26:18;22.91;81.66
57709;SHT35;42558;52.388;13.390;2022-08-19T11:28:47;22.85;81.60
57709;SHT35;42558;52.388;13.390;2022-08-19T11:31:19;22.93;81.43
57709;SHT35;42558;52.388;13.390;2022-08-19T11:33:55;22.96;81.51
57709;SHT35;42558;52.388;13.390;2022-08-19T11:36:29;23.01;81.41
57709;SHT35;42558;52.388;13.390;2022-08-19T11:38:58;23.02;80.97
57709;SHT35;42558;52.388;13.390;2022-08-19T11:41:26;23.04;80.97
57709;SHT35;42558;52.388;13.390;2022-08-19T11:43:54;23.07;80.85
57709;SHT35;42558;52.388;13.390;2022-08-19T11:46:22;23.02;80.92
57709;SHT35;42558;52.388;13.390;2022-08-19T11:48:52;23.05;80.91
57709;SHT35;42558;52.388;13.390;2022-08-19T11:51:20;23.07;80.66
57709;SHT35;42558;52.388;13.390;2022-08-19T11:53:51;23.09;80.64
57709;SHT35;42558;52.388;13.390;2022-08-19T11:56:21;23.07;80.61
57709;SHT35;42558;52.388;13.390;2022-08-19T11:58:50;23.02;80.69
57709;SHT35;42558;52.388;13.390;2022-08-19T12:01:21;23.07;80.94
57709;SHT35;42558;52.388;13.390;2022-08-19T12:03:50;23.11;80.99
57709;SHT35;42558;52.388;13.390;2022-08-19T12:06:22;23.20;80.97
57709;SHT35;42558;52.388;13.390;2022-08-19T12:08:56;23.18;80.43
57709;SHT35;42558;52.388;13.390;2022-08-19T12:11:31;23.20;80.41
57709;SHT35;42558;52.388;13.390;2022-08-19T12:14:00;23.19;80.24
57709;SHT35;42558;52.388;13.390;2022-08-19T12:16:28;23.22;80.31
57709;SHT35;42558;52.388;13.390;2022-08-19T12:18:58;23.25;79.95
57709;SHT35;42558;52.388;13.390;2022-08-19T12:21:31;23.30;79.66
57709;SHT35;42558;52.388;13.390;2022-08-19T12:24:01;23.35;79.51
57709;SHT35;42558;52.388;13.390;2022-08-19T12:26:32;23.39;79.47
57709;SHT35;42558;52.388;13.390;2022-08-19T12:29:01;23.53;79.28
57709;SHT35;42558;52.388;13.390;2022-08-19T12:31:30;23.58;78.74
57709;SHT35;42558;52.388;13.390;2022-08-19T12:33:58;23.48;79.08
57709;SHT35;42558;52.388;13.390;2022-08-19T12:36:25;23.41;78.97
57709;SHT35;42558;52.388;13.390;2022-08-19T12:38:52;23.40;79.30
57709;SHT35;42558;52.388;13.390;2022-08-19T12:41:19;23.35;78.72
57709;SHT35;42558;52.388;13.390;2022-08-19T12:43:49;23.36;79.22
57709;SHT35;42558;52.388;13.390;2022-08-19T12:46:17;23.53;79.15
57709;SHT35;42558;52.388;13.390;2022-08-19T12:48:50;23.68;79.13
57709;SHT35;42558;52.388;13.390;2022-08-19T12:51:20;23.61;78.44
57709;SHT35;42558;52.388;13.390;2022-08-19T12:53:48;23.62;78.09
57709;SHT35;42558;52.388;13.390;2022-08-19T12:56:16;23.59;78.51
57709;SHT35;42558;52.388;13.390;2022-08-19T12:58:48;23.73;78.35
57709;SHT35;42558;52.388;13.390;2022-08-19T13:01:18;23.64;77.98
57709;SHT35;42558;52.388;13.390;2022-08-19T13:03:48;23.67;78.31
57709;SHT35;42558;52.388;13.390;2022-08-19T13:06:18;23.68;78.03
57709;SHT35;42558;52.388;13.390;2022-08-19T13:08:45;23.62;78.10
57709;SHT35;42558;52.388;13.390;2022-08-19T13:11:14;23.52;78.26
57709;SHT35;42558;52.388;13.390;2022-08-19T13:13:46;23.41;78.23
57709;SHT35;42558;52.388;13.390;2022-08-19T13:16:16;23.31;78.60
57709;SHT35;42558;52.388;13.390;2022-08-19T13:18:46;23.33;78.84
57709;SHT35;42558;52.388;13.390;2022-08-19T13:21:14;23.39;78.27
57709;SHT35;42558;52.388;13.390;2022-08-19T13:23:42;23.55;78.01
57709;SHT35;42558;52.388;13.390;2022-08-19T13:26:09;23.67;77.73
57709;SHT35;42558;52.388;13.390;2022-08-19T13:28:39;23.71;76.85
57709;SHT35;42558;52.388;13.390;2022-08-19T13:31:28;23.77;77.01
57709;SHT35;42558;52.388;13.390;2022-08-19T13:34:18;23.76;76.68
57709;SHT35;42558;52.388;13.390;2022-08-19T13:36:56;23.86;76.91
57709;SHT35;42558;52.388;13.390;2022-08-19T13:39:24;23.70;76.51
57709;SHT35;42558;52.388;13.390;2022-08-19T13:41:51;23.63;77.36
57709;SHT35;42558;52.388;13.390;2022-08-19T13:44:18;23.64;77.43
57709;SHT35;42558;52.388;13.390;2022-08-19T13:46:47;23.57;77.49
57709;SHT35;42558;52.388;13.390;2022-08-19T13:49:19;23.48;77.96
57709;SHT35;42558;52.388;13.390;2022-08-19T13:51:46;23.47;78.62
57709;SHT35;42558;52.388;13.390;2022-08-19T13:54:13;23.35;79.43
57709;SHT35;42558;52.388;13.390;2022-08-19T13:56:41;23.23;80.16
57709;SHT35;42558;52.388;13.390;2022-08-19T13:59:11;23.16;80.71
57709;SHT35;42558;52.388;13.390;2022-08-19T14:01:39;23.20;81.02
57709;SHT35;42558;52.388;13.390;2022-08-19T14:04:07;23.33;80.73
57709;SHT35;42558;52.388;13.390;2022-08-19T14:06:34;23.47;80.30
57709;SHT35;42558;52.388;13.390;2022-08-19T14:09:01;23.67;79.49
57709;SHT35;42558;52.388;13.390;2022-08-19T14:11:29;23.76;79.11
57709;SHT35;42558;52.388;13.390;2022-08-19T14:13:56;23.87;78.88
57709;SHT35;42558;52.388;13.390;2022-08-19T14:16:23;23.98;78.07
57709;SHT35;42558;52.388;13.390;2022-08-19T14:18:50;24.10;77.82
57709;SHT35;42558;52.388;13.390;2022-08-19T14:21:19;24.01;77.82
57709;SHT35;42558;52.388;13.390;2022-08-19T14:23:49;24.11;77.73
57709;SHT35;42558;52.388;13.390;2022-08-19T14:26:17;24.23;77.41
57709;SHT35;42558;52.388;13.390;2022-08-19T14:28:46;24.45;76.82
57709;SHT35;42558;52.388;13.390;2022-08-19T14:31:14;24.32;76.30
57709;SHT35;42558;52.388;13.390;2022-08-19T14:33:47;24.29;77.26
57709;SHT35;42558;52.388;13.390;2022-08-19T14:36:17;24.32;76.96
57709;SHT35;42558;52.388;13.390;2022-08-19T14:38:47;24.24;76.85
57709;SHT35;42558;52.388;13.390;2022-08-19T14:43:50;24.19;76.52
57709;SHT35;42558;52.388;13.390;2022-08-19T14:46:20;24.20;76.38
57709;SHT35;42558;52.388;13.390;2022-08-19T14:48:54;24.28;76.27
57709;SHT35;42558;52.388;13.390;2022-08-19T14:51:25;24.30;75.42
57709;SHT35;42558;52.388;13.390;2022-08-19T14:53:55;24.15;75.97
57709;SHT35;42558;52.388;13.390;2022-08-19T14:56:23;24.15;76.25
57709;SHT35;42558;52.388;13.390;2022-08-19T14:58:54;24.08;76.18
57709;SHT35;42558;52.388;13.390;2022-08-19T15:01:25;23.90;77.49
57709;SHT35;42558;52.388;13.390;2022-08-19T15:03:52;23.84;78.39
57709;SHT35;42558;52.388;13.390;2022-08-19T15:06:21;23.84;78.56
57709;SHT35;42558;52.388;13.390;2022-08-19T15:08:50;23.73;78.74
57709;SHT35;42558;52.388;13.390;2022-08-19T15:11:18;23.71;78.80
57709;SHT35;42558;52.388;13.390;2022-08-19T15:13:50;23.54;79.07
57709;SHT35;42558;52.388;13.390;2022-08-19T15:16:17;23.43;79.52
57709;SHT35;42558;52.388;13.390;2022-08-19T15:18:48;23.35;79.80
57709;SHT35;42558;52.388;13.390;2022-08-19T15:21:17;23.25;79.87
57709;SHT35;42558;52.388;13.390;2022-08-19T15:23:53;23.18;79.92
57709;SHT35;42558;52.388;13.390;2022-08-19T15:26:24;23.07;80.23
57709;SHT35;42558;52.388;13.390;2022-08-19T15:28:54;23.01;80.66
57709;SHT35;42558;52.388;13.390;2022-08-19T15:31:21;22.98;80.66
57709;SHT35;42558;52.388;13.390;2022-08-19T15:33:54;22.97;80.62
57709;SHT35;42558;52.388;13.390;2022-08-19T15:36:24;22.99;80.76
57709;SHT35;42558;52.388;13.390;2022-08-19T15:38:51;22.95;80.81
57709;SHT35;42558;52.388;13.390;2022-08-19T15:41:19;22.89;81.22
57709;SHT35;42558;52.388;13.390;2022-08-19T15:43:51;22.86;81.18
57709;SHT35;42558;52.388;13.390;2022-08-19T15:46:30;22.89;81.19
57709;SHT35;42558;52.388;13.390;2022-08-19T15:49:00;22.82;80.97
57709;SHT35;42558;52.388;13.390;2022-08-19T15:51:28;22.78;81.44
57709;SHT35;42558;52.388;13.390;2022-08-19T15:53:58;22.90;81.33